Time;durP1;ratioP1;P1;durP2;ratioP2;P2;SDS_P1;SDS_P2;PMS_P1;PMS_P2;Temp;Humidity;BMP_temperature;BMP_pressure;BME280_temperature;BME280_humidity;BME280_pressure;Samples;Min_cycle;Max_cycle;Signal;HPM_P1;HPM_P2
2022/01/16 00:00:26;;;;;;;0.43;0.43;;;4.00;99.90;;;;;;5022336;28;20186;-79
2022/01/16 00:05:25;;;;;;;0.40;0.40;;;4.00;99.90;;;;;;5021267;28;20310;-79
2022/01/16 00:07:51;;;;;;;0.10;0.10;;;4.00;99.90;;;;;;5018169;28;20209;-79
2022/01/16 00:10:18;;;;;;;0.57;0.57;;;4.00;99.90;;;;;;5020490;28;20697;-79
2022/01/16 00:12:48;;;;;;;0.50;0.50;;;4.00;99.90;;;;;;5020710;28;20189;-78
2022/01/16 00:15:19;;;;;;;0.77;0.57;;;4.00;99.90;;;;;;5003325;28;20194;-79
2022/01/16 00:20:21;;;;;;;1.17;0.60;;;3.50;99.90;;;;;;5022878;28;20640;-79
2022/01/16 00:22:48;;;;;;;0.40;0.40;;;3.70;99.90;;;;;;5001332;28;20195;-79
2022/01/16 00:25:14;;;;;;;1.63;0.97;;;3.80;99.90;;;;;;5002263;28;20214;-79
2022/01/16 00:27:40;;;;;;;0.97;0.83;;;3.90;99.90;;;;;;5003717;28;20212;-80
2022/01/16 00:30:06;;;;;;;0.57;0.57;;;3.80;99.90;;;;;;5020021;28;20197;-79
2022/01/16 00:32:31;;;;;;;0.50;0.50;;;3.90;99.90;;;;;;5022063;28;20197;-79
2022/01/16 00:34:57;;;;;;;2.53;0.97;;;3.80;99.90;;;;;;5021104;28;20201;-78
2022/01/16 00:37:22;;;;;;;0.77;0.37;;;3.90;99.90;;;;;;5014480;28;20213;-79
2022/01/16 00:39:48;;;;;;;1.60;0.40;;;3.90;99.90;;;;;;5015971;28;20207;-80
2022/01/16 00:42:13;;;;;;;3.97;0.60;;;3.90;99.90;;;;;;5032598;28;20207;-79
2022/01/16 00:44:39;;;;;;;1.03;0.70;;;3.90;99.90;;;;;;5032485;28;20250;-79
2022/01/16 00:47:05;;;;;;;0.50;0.50;;;4.00;99.90;;;;;;5033169;28;20580;-80
2022/01/16 00:49:34;;;;;;;0.53;0.37;;;4.00;99.90;;;;;;5000693;28;20630;-80
2022/01/16 00:51:59;;;;;;;0.17;0.17;;;4.10;99.90;;;;;;5018097;28;20193;-80
2022/01/16 00:54:25;;;;;;;1.10;1.00;;;4.00;99.90;;;;;;5018901;28;20196;-80
2022/01/16 00:56:51;;;;;;;0.20;0.20;;;4.10;99.90;;;;;;5016812;28;20644;-80
2022/01/16 00:59:16;;;;;;;0.57;0.57;;;4.10;99.90;;;;;;5018920;28;20192;-81
2022/01/16 01:01:42;;;;;;;0.20;0.20;;;4.10;99.90;;;;;;5018005;28;20196;-79
2022/01/16 01:04:07;;;;;;;1.07;0.33;;;4.20;99.90;;;;;;5000569;28;20191;-80
2022/01/16 01:06:33;;;;;;;0.77;0.70;;;4.20;99.90;;;;;;4998447;28;20178;-80
2022/01/16 01:08:58;;;;;;;0.30;0.30;;;4.10;99.90;;;;;;5016548;28;20211;-80
2022/01/16 01:11:27;;;;;;;1.03;1.03;;;4.10;99.90;;;;;;5016565;28;20212;-80
2022/01/16 01:16:22;;;;;;;0.20;0.20;;;4.20;99.90;;;;;;5015854;28;20184;-79
2022/01/16 01:18:48;;;;;;;0.60;0.60;;;4.20;99.90;;;;;;5015920;28;20300;-80
2022/01/16 01:21:26;;;;;;;1.30;1.30;;;4.20;99.90;;;;;;5017727;28;20269;-80
2022/01/16 01:23:53;;;;;;;0.10;0.10;;;4.10;99.90;;;;;;5016601;28;20668;-79
2022/01/16 01:26:23;;;;;;;1.47;0.43;;;4.20;99.90;;;;;;5016712;28;20176;-80
2022/01/16 01:28:49;;;;;;;0.40;0.40;;;4.20;99.90;;;;;;5020067;28;20208;-80
2022/01/16 01:31:14;;;;;;;1.50;1.07;;;4.20;99.90;;;;;;5024531;28;20249;-79
2022/01/16 01:33:40;;;;;;;0.53;0.40;;;4.20;99.90;;;;;;5000141;28;20187;-79
2022/01/16 01:36:06;;;;;;;0.60;0.50;;;4.20;99.90;;;;;;5019562;28;20200;-80
2022/01/16 01:38:31;;;;;;;1.10;0.70;;;4.30;99.90;;;;;;5003517;28;20265;-80
2022/01/16 01:40:57;;;;;;;1.43;1.33;;;4.30;99.90;;;;;;5018530;28;20655;-81
2022/01/16 01:51:36;;;;;;;0.47;0.47;;;4.00;99.90;;;;;;5017284;28;20236;-79
2022/01/16 01:54:03;;;;;;;0.70;0.70;;;4.00;99.90;;;;;;5002054;28;20621;-79
2022/01/16 01:56:29;;;;;;;0.30;0.30;;;3.80;99.90;;;;;;5018490;28;20222;-79
2022/01/16 01:58:58;;;;;;;2.37;1.07;;;3.80;99.90;;;;;;5017046;28;20247;-81
2022/01/16 02:01:25;;;;;;;3.07;1.40;;;3.80;99.90;;;;;;5020591;28;20290;-80
2022/01/16 02:03:51;;;;;;;0.93;0.50;;;3.80;99.90;;;;;;5021850;28;20200;-79
2022/01/16 02:06:20;;;;;;;4.30;0.80;;;3.80;99.90;;;;;;5020589;28;20275;-80
2022/01/16 02:08:57;;;;;;;1.17;1.17;;;3.80;99.90;;;;;;5002652;28;20229;-79
2022/01/16 02:11:27;;;;;;;5.90;1.63;;;3.70;99.90;;;;;;5003500;28;20177;-79
2022/01/16 02:14:10;;;;;;;0.67;0.60;;;3.60;99.90;;;;;;5021022;28;20539;-80
2022/01/16 02:30:58;;;;;;;6.67;1.43;;;3.30;99.90;;;;;;5021689;28;20186;-79
2022/01/16 02:35:35;;;;;;;1.90;1.80;;;3.20;99.90;;;;;;5019492;28;20201;-80
2022/01/16 02:38:01;;;;;;;1.40;1.30;;;3.20;99.90;;;;;;5002001;28;20676;-80
2022/01/16 02:40:28;;;;;;;0.20;0.20;;;3.10;99.90;;;;;;5003987;28;20265;-80
2022/01/16 02:42:53;;;;;;;0.67;0.50;;;3.10;99.90;;;;;;5019853;28;20190;-80
2022/01/16 02:45:29;;;;;;;0.30;0.23;;;3.10;99.90;;;;;;5020002;28;20212;-80
2022/01/16 02:48:00;;;;;;;4.37;1.27;;;3.20;99.90;;;;;;5018894;28;20205;-80
2022/01/16 02:50:26;;;;;;;0.30;0.30;;;3.10;99.90;;;;;;5019151;28;20548;-80
2022/01/16 02:52:51;;;;;;;0.60;0.40;;;3.10;99.90;;;;;;5019682;28;20172;-81
2022/01/16 02:55:20;;;;;;;1.40;0.97;;;3.00;99.90;;;;;;5019169;28;20192;-79
2022/01/16 02:57:47;;;;;;;0.53;0.53;;;3.00;99.90;;;;;;5008976;28;20689;-80
2022/01/16 03:00:13;;;;;;;0.37;0.37;;;3.00;99.90;;;;;;5018092;28;20224;-80
2022/01/16 03:02:38;;;;;;;0.50;0.30;;;3.00;99.90;;;;;;5019763;28;20224;-79
2022/01/16 03:05:05;;;;;;;0.40;0.40;;;3.10;99.90;;;;;;5001385;28;20223;-80
2022/01/16 03:07:30;;;;;;;1.43;0.93;;;3.20;99.90;;;;;;5018408;28;20232;-80
2022/01/16 03:12:49;;;;;;;0.40;0.40;;;3.10;99.90;;;;;;5019341;28;20208;-80
2022/01/16 03:15:16;;;;;;;0.27;0.17;;;3.20;99.90;;;;;;5018331;28;20189;-80
2022/01/16 03:23:07;;;;;;;0.77;0.37;;;3.20;99.90;;;;;;5019363;28;20323;-80
2022/01/16 03:25:33;;;;;;;1.70;1.37;;;3.20;99.90;;;;;;5017108;28;20296;-79
2022/01/16 03:27:58;;;;;;;0.57;0.40;;;3.20;99.90;;;;;;5000742;28;20241;-80
2022/01/16 03:30:24;;;;;;;0.53;0.53;;;3.20;99.90;;;;;;5017841;28;20239;-81
2022/01/16 03:32:49;;;;;;;1.80;0.60;;;3.20;99.90;;;;;;5018371;28;20174;-80
2022/01/16 03:35:15;;;;;;;1.00;0.70;;;3.10;99.90;;;;;;5018275;28;20188;-79
2022/01/16 03:37:40;;;;;;;0.67;0.50;;;3.10;99.90;;;;;;4999740;28;20724;-80
2022/01/16 03:40:10;;;;;;;2.20;1.17;;;3.20;99.90;;;;;;5018907;28;20271;-78
2022/01/16 03:42:36;;;;;;;0.50;0.50;;;3.10;99.90;;;;;;5017919;28;20183;-78
2022/01/16 03:45:06;;;;;;;0.67;0.50;;;3.10;99.90;;;;;;5000162;28;20214;-79
2022/01/16 03:47:31;;;;;;;0.50;0.50;;;3.10;99.90;;;;;;5018349;28;20207;-78
2022/01/16 03:49:57;;;;;;;0.50;0.50;;;3.10;99.90;;;;;;5018707;28;20179;-79
2022/01/16 03:52:23;;;;;;;0.30;0.30;;;3.10;99.90;;;;;;5015872;28;20198;-78
2022/01/16 03:54:48;;;;;;;0.93;0.93;;;3.00;99.90;;;;;;5000418;28;20681;-79
2022/01/16 03:57:14;;;;;;;0.87;0.87;;;3.10;99.90;;;;;;4999245;28;20213;-78
2022/01/16 03:59:39;;;;;;;2.00;1.90;;;3.00;99.90;;;;;;5016488;28;20713;-79
2022/01/16 04:02:05;;;;;;;0.80;0.80;;;3.00;99.90;;;;;;5017567;28;20221;-78
2022/01/16 04:04:31;;;;;;;0.37;0.37;;;3.00;99.90;;;;;;4999809;28;20207;-79
2022/01/16 04:06:57;;;;;;;0.40;0.40;;;3.00;99.90;;;;;;5017083;28;20188;-78
2022/01/16 04:09:23;;;;;;;0.13;0.13;;;3.00;99.90;;;;;;5000975;28;20184;-78
2022/01/16 04:11:53;;;;;;;1.13;0.40;;;3.00;99.90;;;;;;4999691;28;20207;-78
2022/01/16 04:17:03;;;;;;;0.33;0.33;;;3.20;99.90;;;;;;5016575;28;21062;-78
2022/01/16 04:19:29;;;;;;;0.63;0.63;;;3.10;99.90;;;;;;5026671;28;20188;-78
2022/01/16 04:21:54;;;;;;;0.10;0.10;;;3.20;99.90;;;;;;5001311;28;20193;-78
2022/01/16 04:24:20;;;;;;;0.60;0.60;;;3.30;99.90;;;;;;4999602;28;20239;-78
2022/01/16 04:26:45;;;;;;;2.00;0.40;;;3.30;99.90;;;;;;5000088;28;20188;-78
2022/01/16 04:29:10;;;;;;;4.90;0.40;;;3.30;99.90;;;;;;5017787;28;20191;-78
2022/01/16 04:31:36;;;;;;;0.83;0.70;;;3.40;99.90;;;;;;5015272;28;20193;-79
2022/01/16 04:34:01;;;;;;;3.73;1.00;;;3.40;99.90;;;;;;5016968;28;20196;-78
2022/01/16 04:36:27;;;;;;;0.57;0.57;;;3.50;99.90;;;;;;4997816;28;20197;-78
2022/01/16 04:38:52;;;;;;;0.53;0.33;;;3.50;99.90;;;;;;5017676;28;20248;-77
2022/01/16 04:44:04;;;;;;;0.53;0.53;;;3.50;99.90;;;;;;5017275;28;20266;-78
2022/01/16 04:46:31;;;;;;;0.33;0.33;;;3.50;99.90;;;;;;4998070;28;20212;-78
2022/01/16 04:48:57;;;;;;;1.60;0.40;;;3.60;99.90;;;;;;5006317;28;20339;-79
2022/01/16 04:51:24;;;;;;;0.70;0.70;;;3.60;99.90;;;;;;4999196;28;20183;-78
2022/01/16 04:53:50;;;;;;;0.47;0.47;;;3.50;99.90;;;;;;5016051;28;20194;-79
2022/01/16 04:56:15;;;;;;;2.13;0.87;;;3.50;99.90;;;;;;5015961;28;20468;-78
2022/01/16 04:58:42;;;;;;;0.47;0.47;;;3.40;99.90;;;;;;5016252;28;20203;-79
2022/01/16 05:01:08;;;;;;;0.93;0.33;;;3.30;99.90;;;;;;5017119;28;20191;-78
2022/01/16 05:03:35;;;;;;;0.13;0.13;;;3.20;99.90;;;;;;4998916;28;20190;-78
2022/01/16 05:06:01;;;;;;;0.60;0.50;;;3.30;99.90;;;;;;4997161;28;20232;-78
2022/01/16 05:08:28;;;;;;;0.50;0.30;;;3.40;99.90;;;;;;4998072;28;20239;-78
2022/01/16 05:10:57;;;;;;;1.67;1.43;;;3.30;99.90;;;;;;5016495;28;20188;-78
2022/01/16 05:18:39;;;;;;;0.80;0.67;;;3.20;99.90;;;;;;5009681;28;20262;-80
2022/01/16 05:21:06;;;;;;;0.40;0.40;;;3.20;99.90;;;;;;4997400;28;20196;-79
2022/01/16 05:23:32;;;;;;;0.27;0.27;;;3.20;99.90;;;;;;5015587;28;20248;-79
2022/01/16 05:25:59;;;;;;;0.70;0.70;;;3.20;99.90;;;;;;5014162;28;20825;-79
2022/01/16 05:28:24;;;;;;;0.67;0.60;;;3.20;99.90;;;;;;4998446;28;20797;-79
2022/01/16 05:30:50;;;;;;;1.70;0.53;;;3.20;99.90;;;;;;5015318;28;20199;-79
2022/01/16 05:33:15;;;;;;;0.20;0.20;;;3.20;99.90;;;;;;5014815;28;20219;-79
2022/01/16 05:35:42;;;;;;;0.40;0.40;;;3.30;99.90;;;;;;5014486;28;20188;-79
2022/01/16 05:38:08;;;;;;;0.30;0.30;;;3.30;99.90;;;;;;5016823;28;20215;-79
2022/01/16 05:40:34;;;;;;;0.40;0.40;;;3.30;99.90;;;;;;4997194;28;20211;-79
2022/01/16 05:42:59;;;;;;;1.70;0.90;;;3.30;99.90;;;;;;4999036;28;20196;-79
2022/01/16 05:45:25;;;;;;;0.77;0.77;;;3.20;99.90;;;;;;5014386;28;20195;-79
2022/01/16 05:47:51;;;;;;;1.53;1.43;;;3.20;99.90;;;;;;5016217;28;20687;-79
2022/01/16 05:50:16;;;;;;;1.90;0.70;;;3.20;99.90;;;;;;5016336;28;20179;-79
2022/01/16 05:52:42;;;;;;;0.97;0.97;;;3.20;99.90;;;;;;5013443;28;20192;-78
2022/01/16 05:55:08;;;;;;;0.67;0.67;;;3.20;99.90;;;;;;4997905;28;20187;-79
2022/01/16 05:57:34;;;;;;;0.30;0.30;;;3.20;99.90;;;;;;5015079;28;20199;-79
2022/01/16 05:59:59;;;;;;;1.03;1.03;;;3.10;99.90;;;;;;5016304;28;20604;-79
2022/01/16 06:02:26;;;;;;;0.67;0.47;;;3.10;99.90;;;;;;5013896;28;20253;-79
2022/01/16 06:04:52;;;;;;;0.67;0.30;;;3.20;99.90;;;;;;5015299;28;20254;-79
2022/01/16 06:07:18;;;;;;;1.43;0.67;;;3.20;99.90;;;;;;5015054;28;20263;-79
2022/01/16 06:09:44;;;;;;;0.43;0.43;;;3.20;99.90;;;;;;4994581;28;20234;-79
2022/01/16 06:12:11;;;;;;;0.20;0.20;;;3.10;99.90;;;;;;4996758;28;20181;-78
2022/01/16 06:14:36;;;;;;;0.20;0.20;;;3.10;99.90;;;;;;5014407;28;20196;-79
2022/01/16 06:17:02;;;;;;;0.60;0.60;;;3.00;99.90;;;;;;5014994;28;20193;-79
2022/01/16 06:19:27;;;;;;;0.67;0.67;;;3.00;99.90;;;;;;4996992;28;20634;-79
2022/01/16 06:21:53;;;;;;;0.47;0.30;;;3.00;99.90;;;;;;5015109;28;20183;-78
2022/01/16 06:24:18;;;;;;;0.07;0.07;;;3.00;99.90;;;;;;4995523;28;20286;-77
2022/01/16 06:26:44;;;;;;;0.07;0.07;;;3.00;99.90;;;;;;5015278;28;20649;-79
2022/01/16 06:29:10;;;;;;;0.50;0.20;;;3.10;99.90;;;;;;4997508;28;20189;-79
2022/01/16 06:31:36;;;;;;;0.10;0.10;;;3.20;99.90;;;;;;5012092;28;20303;-78
2022/01/16 06:34:02;;;;;;;1.23;1.13;;;3.20;99.90;;;;;;5012705;28;20191;-78
2022/01/16 06:36:28;;;;;;;1.33;0.60;;;3.20;99.90;;;;;;4994732;28;20205;-77
2022/01/16 06:38:54;;;;;;;1.13;0.17;;;3.30;99.90;;;;;;4996058;28;20247;-78
2022/01/16 06:41:20;;;;;;;0.10;0.10;;;3.30;99.90;;;;;;4995037;28;20193;-78
2022/01/16 06:43:46;;;;;;;0.60;0.43;;;3.20;99.90;;;;;;5013260;28;20185;-78
2022/01/16 06:46:11;;;;;;;0.60;0.23;;;3.30;99.90;;;;;;5015004;28;20628;-78
2022/01/16 06:48:37;;;;;;;0.30;0.30;;;3.30;99.90;;;;;;5017664;28;20209;-79
2022/01/16 06:51:03;;;;;;;0.67;0.67;;;3.30;99.90;;;;;;5017878;28;20193;-78
2022/01/16 06:53:29;;;;;;;0.20;0.20;;;3.40;99.90;;;;;;4998899;28;20817;-77
2022/01/16 06:55:55;;;;;;;0.23;0.23;;;3.40;99.90;;;;;;5018739;28;20273;-78
2022/01/16 06:58:20;;;;;;;0.87;0.83;;;3.40;99.90;;;;;;5017588;28;20225;-77
2022/01/16 07:00:47;;;;;;;0.50;0.50;;;3.40;99.90;;;;;;4999352;28;20274;-77
2022/01/16 07:03:14;;;;;;;0.60;0.60;;;3.40;99.90;;;;;;5018123;28;20187;-77
2022/01/16 07:05:42;;;;;;;0.33;0.30;;;3.40;99.90;;;;;;5018257;28;20218;-77
2022/01/16 07:08:08;;;;;;;0.30;0.30;;;3.40;99.90;;;;;;5016903;28;20207;-78
2022/01/16 07:10:33;;;;;;;0.73;0.60;;;3.40;99.90;;;;;;5018125;28;20267;-78
2022/01/16 07:12:59;;;;;;;1.50;1.40;;;3.50;99.90;;;;;;4997674;28;20216;-78
2022/01/16 07:15:25;;;;;;;0.60;0.60;;;3.40;99.90;;;;;;4997261;28;20202;-78
2022/01/16 07:17:50;;;;;;;1.40;0.83;;;3.50;99.90;;;;;;5018113;28;20242;-78
2022/01/16 07:20:16;;;;;;;0.50;0.50;;;3.50;99.90;;;;;;5018462;28;20596;-80
2022/01/16 07:22:43;;;;;;;1.30;1.10;;;3.40;99.90;;;;;;5019921;28;20623;-78
2022/01/16 07:25:09;;;;;;;0.30;0.30;;;3.50;99.90;;;;;;4999022;28;20208;-79
2022/01/16 07:27:35;;;;;;;1.17;0.67;;;3.40;99.90;;;;;;5017953;28;20196;-78
2022/01/16 07:30:01;;;;;;;0.97;0.63;;;3.50;99.90;;;;;;4999829;28;20202;-78
2022/01/16 07:32:26;;;;;;;0.60;0.57;;;3.50;99.90;;;;;;4998211;28;20223;-77
2022/01/16 07:34:52;;;;;;;0.50;0.30;;;3.50;99.90;;;;;;4999625;28;20192;-78
2022/01/16 07:37:17;;;;;;;0.37;0.37;;;3.50;99.90;;;;;;5017230;28;20303;-78
2022/01/16 07:39:44;;;;;;;0.67;0.40;;;3.50;99.90;;;;;;5015409;28;21042;-78
2022/01/16 07:42:09;;;;;;;0.90;0.90;;;3.50;99.90;;;;;;5016661;28;20183;-78
2022/01/16 07:44:35;;;;;;;0.77;0.60;;;3.50;99.90;;;;;;5017367;28;20229;-78
2022/01/16 07:47:00;;;;;;;5.10;1.00;;;3.40;99.90;;;;;;5014310;28;20235;-78
2022/01/16 07:49:26;;;;;;;1.67;1.57;;;3.40;99.90;;;;;;4998543;28;20658;-79
2022/01/16 07:51:51;;;;;;;2.37;1.43;;;3.40;99.90;;;;;;5015219;28;20223;-79
2022/01/16 07:54:18;;;;;;;0.83;0.50;;;3.40;99.90;;;;;;5016801;28;20192;-78
2022/01/16 07:56:44;;;;;;;0.50;0.50;;;3.30;99.90;;;;;;5015630;28;20185;-80
2022/01/16 07:59:10;;;;;;;0.83;0.83;;;3.20;99.90;;;;;;5000057;28;20550;-81
2022/01/16 08:01:35;;;;;;;0.60;0.60;;;3.10;99.90;;;;;;5015965;28;20191;-81
2022/01/16 08:04:01;;;;;;;0.90;0.90;;;3.10;99.90;;;;;;5007270;28;20206;-80
2022/01/16 08:06:27;;;;;;;0.80;0.80;;;3.10;99.90;;;;;;5017128;28;21325;-80
2022/01/16 08:08:52;;;;;;;0.50;0.50;;;3.10;99.90;;;;;;5002051;28;20214;-81
2022/01/16 08:11:18;;;;;;;1.50;1.07;;;3.10;99.90;;;;;;5011609;28;20184;-77
2022/01/16 08:13:43;;;;;;;0.20;0.20;;;3.10;99.90;;;;;;5014076;28;20185;-78
2022/01/16 08:16:09;;;;;;;0.40;0.40;;;3.20;99.90;;;;;;5000725;28;20180;-78
2022/01/16 08:18:35;;;;;;;0.83;0.60;;;3.20;99.90;;;;;;5018182;28;20210;-77
2022/01/16 08:21:01;;;;;;;1.30;0.60;;;3.20;99.90;;;;;;5015259;28;20186;-77
2022/01/16 08:23:27;;;;;;;1.13;1.07;;;3.20;99.90;;;;;;4997927;28;20203;-78
2022/01/16 08:25:53;;;;;;;0.33;0.33;;;3.20;99.90;;;;;;4997584;28;20295;-78
2022/01/16 08:28:18;;;;;;;1.37;1.27;;;3.30;99.90;;;;;;4998399;28;20222;-79
2022/01/16 08:30:44;;;;;;;0.40;0.40;;;3.20;99.90;;;;;;4997349;28;20191;-78
2022/01/16 08:33:10;;;;;;;0.43;0.43;;;3.30;99.90;;;;;;5015771;28;20187;-79
2022/01/16 08:35:35;;;;;;;0.67;0.67;;;3.20;99.90;;;;;;4992907;28;20652;-79
2022/01/16 08:38:01;;;;;;;0.33;0.33;;;3.30;99.90;;;;;;5011405;28;20235;-82
2022/01/16 08:40:27;;;;;;;1.47;1.40;;;3.30;99.90;;;;;;5000112;28;20192;-81
2022/01/16 08:42:52;;;;;;;1.03;1.03;;;3.30;99.90;;;;;;5015540;28;20176;-81
2022/01/16 08:45:18;;;;;;;1.13;0.50;;;3.30;99.90;;;;;;5014903;28;20203;-81
2022/01/16 08:47:44;;;;;;;1.13;1.13;;;3.30;99.90;;;;;;4998662;28;20201;-82
2022/01/16 08:50:10;;;;;;;0.97;0.97;;;3.30;99.90;;;;;;5016839;28;20173;-82
2022/01/16 08:52:36;;;;;;;3.13;0.87;;;3.40;99.90;;;;;;5000490;28;20188;-81
2022/01/16 08:55:02;;;;;;;0.73;0.73;;;3.50;99.90;;;;;;5004330;28;20195;-82
2022/01/16 08:57:28;;;;;;;0.50;0.50;;;3.50;99.90;;;;;;5000364;28;20220;-82
2022/01/16 08:59:54;;;;;;;1.50;0.57;;;3.60;99.90;;;;;;5000095;28;20298;-80
2022/01/16 09:02:19;;;;;;;0.73;0.73;;;3.60;99.90;;;;;;5016648;28;20211;-82
2022/01/16 09:04:46;;;;;;;1.13;1.13;;;3.70;99.90;;;;;;4999548;28;20289;-81
2022/01/16 09:07:13;;;;;;;1.77;0.90;;;3.70;99.90;;;;;;5011795;28;20224;-82
2022/01/16 09:09:40;;;;;;;1.17;1.03;;;3.80;99.90;;;;;;5029452;28;20286;-80
2022/01/16 09:12:06;;;;;;;0.67;0.67;;;3.90;99.90;;;;;;5024748;28;20213;-79
2022/01/16 09:14:32;;;;;;;1.13;0.63;;;4.00;99.90;;;;;;5008906;28;20190;-78
2022/01/16 09:16:57;;;;;;;6.93;1.73;;;4.00;99.90;;;;;;5008121;28;20240;-78
2022/01/16 09:19:23;;;;;;;2.47;1.00;;;4.00;99.90;;;;;;5017473;28;22468;-78
2022/01/16 09:21:48;;;;;;;1.27;0.80;;;4.00;99.90;;;;;;5016094;28;20205;-79
2022/01/16 09:24:14;;;;;;;3.10;2.93;;;4.10;99.90;;;;;;5015679;28;20224;-78
2022/01/16 09:26:39;;;;;;;0.60;0.60;;;4.10;99.90;;;;;;5007471;28;22272;-79
2022/01/16 09:29:05;;;;;;;1.97;1.50;;;4.20;99.90;;;;;;4994821;28;20202;-79
2022/01/16 09:31:30;;;;;;;2.27;1.33;;;4.20;99.90;;;;;;5005935;28;20222;-79
2022/01/16 09:33:56;;;;;;;1.90;1.63;;;4.10;99.90;;;;;;5010179;28;20186;-78
2022/01/16 09:36:22;;;;;;;1.37;1.00;;;4.10;99.90;;;;;;5019166;28;20986;-78
2022/01/16 09:38:48;;;;;;;1.90;1.27;;;4.10;99.90;;;;;;5025213;28;20220;-78
2022/01/16 09:41:14;;;;;;;1.30;1.20;;;4.00;99.90;;;;;;5017891;28;20186;-78
2022/01/16 09:43:41;;;;;;;2.33;2.17;;;4.00;99.90;;;;;;5016445;28;20235;-79
2022/01/16 09:46:07;;;;;;;1.40;1.30;;;4.00;99.90;;;;;;4998356;28;20691;-80
2022/01/16 09:48:32;;;;;;;1.77;0.70;;;4.00;99.90;;;;;;5013915;28;20207;-78
2022/01/16 09:50:58;;;;;;;0.30;0.30;;;4.00;99.90;;;;;;5015852;28;20186;-80
2022/01/16 09:53:23;;;;;;;6.97;1.93;;;3.90;99.90;;;;;;4994515;28;20214;-78
2022/01/16 09:55:50;;;;;;;1.63;1.23;;;3.90;99.90;;;;;;4997024;28;20192;-79
2022/01/16 09:58:16;;;;;;;0.87;0.80;;;3.90;99.90;;;;;;5007684;28;21264;-78
2022/01/16 10:00:41;;;;;;;4.50;1.77;;;3.90;99.90;;;;;;5014472;28;20184;-79
2022/01/16 10:03:07;;;;;;;4.23;1.33;;;3.90;99.90;;;;;;5013040;28;20191;-79
2022/01/16 10:05:38;;;;;;;1.90;0.70;;;3.90;99.90;;;;;;4995835;28;20262;-79
2022/01/16 10:08:07;;;;;;;1.50;1.03;;;3.90;99.90;;;;;;5015098;28;20255;-79
2022/01/16 10:10:39;;;;;;;1.10;1.10;;;3.80;99.90;;;;;;4998753;28;20198;-79
2022/01/16 10:13:21;;;;;;;1.17;1.17;;;3.80;99.90;;;;;;4996377;28;20277;-79
2022/01/16 10:15:55;;;;;;;1.00;0.90;;;3.80;99.90;;;;;;5014973;28;20179;-79
2022/01/16 10:18:36;;;;;;;0.80;0.80;;;3.80;99.90;;;;;;5011600;28;20249;-79
2022/01/16 10:21:01;;;;;;;1.80;1.07;;;3.70;99.90;;;;;;5004058;28;20183;-79
2022/01/16 10:23:27;;;;;;;1.03;0.93;;;3.80;99.90;;;;;;5015199;28;20922;-79
2022/01/16 10:25:53;;;;;;;2.30;1.47;;;3.70;99.90;;;;;;5016091;28;20210;-79
2022/01/16 10:28:25;;;;;;;0.40;0.40;;;3.70;99.90;;;;;;5013472;28;20205;-79
2022/01/16 10:30:56;;;;;;;0.70;0.70;;;3.70;99.90;;;;;;5016809;28;20279;-80
2022/01/16 10:33:23;;;;;;;0.60;0.60;;;3.70;99.90;;;;;;5002892;28;22177;-80
2022/01/16 10:35:52;;;;;;;1.23;1.13;;;3.70;99.90;;;;;;5009231;28;20259;-80
2022/01/16 10:38:24;;;;;;;0.53;0.53;;;3.60;99.90;;;;;;4991176;28;20355;-79
2022/01/16 10:40:50;;;;;;;1.90;1.17;;;3.60;99.90;;;;;;5012144;28;20188;-80
2022/01/16 10:43:35;;;;;;;2.27;1.10;;;3.50;99.90;;;;;;4988288;28;20197;-80
2022/01/16 10:46:00;;;;;;;4.37;1.57;;;3.50;99.90;;;;;;5008657;28;20207;-79
2022/01/16 10:48:26;;;;;;;3.17;1.67;;;3.50;99.90;;;;;;5014716;28;20215;-80
2022/01/16 10:50:52;;;;;;;7.20;1.67;;;3.50;99.90;;;;;;5016923;28;20258;-80
2022/01/16 10:53:23;;;;;;;1.13;0.57;;;3.40;99.90;;;;;;5014546;28;20536;-80
2022/01/16 10:55:54;;;;;;;1.17;1.07;;;3.40;99.90;;;;;;4995314;28;20203;-79
2022/01/16 10:58:28;;;;;;;1.20;1.07;;;3.50;99.90;;;;;;4996660;28;20220;-80
2022/01/16 11:01:05;;;;;;;1.23;1.23;;;3.50;99.90;;;;;;4999451;28;20186;-80
2022/01/16 11:03:48;;;;;;;1.43;1.03;;;3.50;99.90;;;;;;5013664;28;20184;-79
2022/01/16 11:06:15;;;;;;;0.60;0.60;;;3.60;99.90;;;;;;4997701;28;20206;-79
2022/01/16 11:08:48;;;;;;;0.60;0.40;;;3.60;99.90;;;;;;5015412;28;20297;-80
2022/01/16 11:11:14;;;;;;;1.17;1.03;;;3.60;99.90;;;;;;4997608;28;20239;-81
2022/01/16 11:13:40;;;;;;;0.63;0.53;;;3.70;99.90;;;;;;5016711;28;20208;-79
2022/01/16 11:16:07;;;;;;;2.23;1.10;;;3.80;99.90;;;;;;4996627;28;20194;-79
2022/01/16 11:18:40;;;;;;;6.87;0.53;;;3.80;99.90;;;;;;4997474;28;20214;-80
2022/01/16 11:26:20;;;;;;;0.60;0.60;;;3.80;99.90;;;;;;5014198;28;20234;-80
2022/01/16 11:28:46;;;;;;;1.73;1.13;;;3.80;99.90;;;;;;5014347;28;20569;-80
2022/01/16 11:31:13;;;;;;;1.43;1.37;;;3.90;99.90;;;;;;5012980;28;20200;-80
2022/01/16 11:33:40;;;;;;;1.80;1.70;;;3.90;99.90;;;;;;5017063;28;20188;-79
2022/01/16 11:36:12;;;;;;;1.83;1.73;;;3.90;99.90;;;;;;5015224;28;20193;-80
2022/01/16 11:38:44;;;;;;;2.13;1.63;;;3.90;99.90;;;;;;5004187;28;20295;-79
2022/01/16 11:41:24;;;;;;;12.70;1.40;;;3.90;99.90;;;;;;5023790;28;20275;-80
2022/01/16 11:43:51;;;;;;;2.10;0.77;;;4.00;99.90;;;;;;5022678;28;20176;-80
2022/01/16 11:46:20;;;;;;;1.53;0.80;;;4.00;99.90;;;;;;5014090;28;20245;-79
2022/01/16 11:48:59;;;;;;;0.60;0.53;;;4.20;99.90;;;;;;5011331;28;20215;-80
2022/01/16 11:51:37;;;;;;;0.73;0.73;;;4.20;99.90;;;;;;5011811;28;20189;-79
2022/01/16 11:54:06;;;;;;;1.33;1.03;;;4.20;99.90;;;;;;4996385;28;20189;-79
2022/01/16 11:56:38;;;;;;;0.87;0.70;;;4.20;99.90;;;;;;5003206;28;20187;-80
2022/01/16 11:59:26;;;;;;;0.93;0.93;;;4.30;99.90;;;;;;5011673;28;20702;-80
2022/01/16 12:01:56;;;;;;;1.17;1.03;;;4.40;99.90;;;;;;5014771;28;20170;-80
2022/01/16 12:04:31;;;;;;;2.77;1.97;;;4.40;99.90;;;;;;4993460;28;20216;-80
2022/01/16 12:07:00;;;;;;;0.90;0.90;;;4.50;99.90;;;;;;5014538;28;20206;-79
2022/01/16 12:09:35;;;;;;;0.50;0.50;;;4.60;99.90;;;;;;4994851;28;20285;-79
2022/01/16 12:12:03;;;;;;;0.20;0.20;;;4.70;99.90;;;;;;5002148;28;20188;-79
2022/01/16 12:14:57;;;;;;;1.47;1.37;;;4.80;99.90;;;;;;5000567;28;20193;-80
2022/01/16 12:17:30;;;;;;;1.53;1.50;;;5.00;99.90;;;;;;5015476;28;20717;-78
2022/01/16 12:19:57;;;;;;;1.37;0.80;;;5.10;99.90;;;;;;5016842;28;20232;-79
2022/01/16 12:23:04;;;;;;;0.57;0.50;;;5.10;99.90;;;;;;5020978;28;20200;-79
2022/01/16 12:25:40;;;;;;;1.40;0.97;;;5.00;99.90;;;;;;4999692;28;20236;-80
2022/01/16 12:28:09;;;;;;;3.00;1.03;;;4.90;99.90;;;;;;5004234;28;20308;-80
2022/01/16 12:30:58;;;;;;;3.93;1.67;;;4.80;99.90;;;;;;5019630;28;20258;-80
2022/01/16 12:33:40;;;;;;;1.50;1.13;;;4.90;99.90;;;;;;5022573;28;20255;-81
2022/01/16 12:36:11;;;;;;;1.80;1.37;;;4.90;99.90;;;;;;5021785;28;20189;-80
2022/01/16 12:38:56;;;;;;;3.00;1.67;;;5.00;99.90;;;;;;5002015;28;20222;-80
2022/01/16 12:41:27;;;;;;;0.93;0.90;;;5.20;99.90;;;;;;5022806;28;20682;-80
2022/01/16 12:44:00;;;;;;;1.57;1.10;;;5.20;99.90;;;;;;5017791;28;20182;-79
2022/01/16 12:46:31;;;;;;;1.50;1.23;;;5.50;99.90;;;;;;5018565;28;20205;-79
2022/01/16 12:49:02;;;;;;;2.60;1.70;;;5.40;99.90;;;;;;5020182;28;20234;-80
2022/01/16 12:51:30;;;;;;;2.07;1.03;;;5.30;99.90;;;;;;5003011;28;20216;-81
2022/01/16 12:54:01;;;;;;;0.77;0.73;;;5.40;99.90;;;;;;5019399;28;20180;-79
2022/01/16 12:56:30;;;;;;;0.37;0.37;;;5.50;99.90;;;;;;5022573;28;20182;-79
2022/01/16 12:59:24;;;;;;;0.83;0.83;;;5.50;99.90;;;;;;4997280;28;20200;-80
2022/01/16 13:01:55;;;;;;;1.77;1.23;;;5.20;99.90;;;;;;5017282;28;20619;-79
2022/01/16 13:04:32;;;;;;;1.80;1.27;;;5.20;99.90;;;;;;5018611;28;20293;-80
2022/01/16 13:07:07;;;;;;;2.53;0.70;;;5.20;99.90;;;;;;5016992;28;20185;-79
2022/01/16 13:09:33;;;;;;;3.10;1.10;;;5.10;99.90;;;;;;5016643;28;20382;-80
2022/01/16 13:12:00;;;;;;;2.57;1.00;;;5.10;99.90;;;;;;5017512;28;20690;-79
2022/01/16 13:14:28;;;;;;;6.33;1.17;;;5.20;99.90;;;;;;5015329;28;20183;-78
2022/01/16 13:17:03;;;;;;;0.67;0.67;;;5.20;99.90;;;;;;5000066;28;20221;-80
2022/01/16 13:19:49;;;;;;;2.23;1.07;;;5.10;99.90;;;;;;5002329;28;20181;-79
2022/01/16 13:22:16;;;;;;;4.10;0.83;;;5.10;99.90;;;;;;5020365;28;20182;-79
2022/01/16 13:24:58;;;;;;;0.87;0.87;;;5.00;99.90;;;;;;4999799;28;20259;-79
2022/01/16 13:27:26;;;;;;;7.10;2.60;;;4.90;99.90;;;;;;4998643;28;20237;-79
2022/01/16 13:29:55;;;;;;;0.83;0.83;;;5.00;99.90;;;;;;5015643;28;20185;-79
2022/01/16 13:32:26;;;;;;;1.23;0.80;;;4.90;99.90;;;;;;5002108;28;20240;-79
2022/01/16 13:34:54;;;;;;;0.63;0.63;;;4.90;99.90;;;;;;5018212;28;20981;-79
2022/01/16 13:37:26;;;;;;;0.57;0.57;;;4.90;99.90;;;;;;5016779;28;20644;-79
2022/01/16 13:40:00;;;;;;;1.40;1.13;;;4.80;99.90;;;;;;5000463;28;20193;-78
2022/01/16 13:42:53;;;;;;;1.47;1.40;;;4.70;99.90;;;;;;5017451;28;20234;-79
2022/01/16 13:45:32;;;;;;;2.73;0.93;;;4.60;99.90;;;;;;4995419;28;20215;-79
2022/01/16 13:48:15;;;;;;;0.40;0.33;;;4.70;99.90;;;;;;5015121;28;20203;-79
2022/01/16 13:50:52;;;;;;;0.47;0.47;;;4.70;99.90;;;;;;4991480;28;20663;-79
2022/01/16 13:53:37;;;;;;;1.43;0.97;;;4.60;99.90;;;;;;5018774;28;20171;-80
2022/01/16 13:56:28;;;;;;;0.57;0.57;;;4.50;99.90;;;;;;5016066;28;20184;-80
2022/01/16 13:58:57;;;;;;;0.93;0.93;;;4.50;99.90;;;;;;4989382;28;20751;-80